createdAt,value
2017-08-04T18:15:32.573Z,24.3
2017-08-04T18:15:53.248Z,24.3
2017-08-04T18:16:13.903Z,24.3
2017-08-04T18:16:34.582Z,24.2
2017-08-04T18:16:55.535Z,24.2
2017-08-04T18:17:16.234Z,24.3
2017-08-04T18:17:36.883Z,24.3
2017-08-04T18:17:57.568Z,24.2
2017-08-04T18:18:18.275Z,24.2
2017-08-04T18:18:38.924Z,24.2
2017-08-04T18:18:59.559Z,24.2
2017-08-04T18:19:20.226Z,24.1
2017-08-04T18:19:40.899Z,24.1
2017-08-04T18:20:01.541Z,24.1
2017-08-04T18:20:22.230Z,24.1
2017-08-04T18:20:43.185Z,24.1
2017-08-04T18:21:04.751Z,24.1
2017-08-04T18:21:26.341Z,24
2017-08-04T18:21:47.079Z,24
2017-08-04T18:22:07.723Z,24
2017-08-04T18:22:28.381Z,23.9
2017-08-04T18:22:49.036Z,24.1
2017-08-04T18:23:09.694Z,24
2017-08-04T18:23:30.350Z,24.1
2017-08-04T18:23:51.070Z,24
2017-08-04T18:24:12.367Z,24
2017-08-04T18:24:33.068Z,24
2017-08-04T18:24:53.717Z,24
2017-08-04T18:25:14.384Z,23.9
2017-08-04T18:25:35.052Z,24
2017-08-04T18:25:55.700Z,24
2017-08-04T18:26:16.538Z,24
2017-08-04T18:26:37.225Z,24
2017-08-04T18:26:58.092Z,24
2017-08-04T18:27:19.112Z,23.9
2017-08-04T18:27:39.775Z,23.9
2017-08-04T18:28:00.469Z,23.9
2017-08-04T18:28:21.204Z,23.9
2017-08-04T18:28:41.849Z,23.9
2017-08-04T18:29:02.482Z,23.9
2017-08-04T18:29:23.122Z,23.9
2017-08-04T18:29:43.827Z,23.8
2017-08-04T18:30:04.515Z,23.8
2017-08-04T18:30:25.186Z,23.8
2017-08-04T18:30:45.852Z,23.8
2017-08-04T18:31:06.504Z,23.8
2017-08-04T18:31:27.148Z,23.8
2017-08-04T18:31:47.811Z,23.8
2017-08-04T18:32:08.514Z,23.8
2017-08-04T18:32:29.167Z,23.8
2017-08-04T18:32:49.960Z,23.8
2017-08-04T18:33:10.609Z,23.8
2017-08-04T18:33:31.322Z,23.8
2017-08-04T18:33:52.047Z,23.8
2017-08-04T18:34:12.694Z,23.8
2017-08-04T18:34:33.351Z,23.8
2017-08-04T18:34:54.004Z,23.7
2017-08-04T18:35:14.676Z,23.7
2017-08-04T18:35:35.304Z,23.7
2017-08-04T18:35:55.955Z,23.7
2017-08-04T18:36:16.600Z,23.6
2017-08-04T18:36:37.243Z,23.7
2017-08-04T18:36:58.531Z,23.6
2017-08-04T18:37:19.664Z,23.6
2017-08-04T18:37:40.410Z,23.6
2017-08-04T18:38:01.062Z,23.6
2017-08-04T18:38:21.700Z,23.7
2017-08-04T18:38:42.357Z,23.6
2017-08-04T18:39:03.049Z,23.6
2017-08-04T18:39:23.947Z,23.5
2017-08-04T18:39:44.821Z,23.6
2017-08-04T18:40:05.494Z,23.5
2017-08-04T18:40:26.138Z,23.5
2017-08-04T18:40:46.811Z,23.5
2017-08-04T18:41:07.465Z,23.5
2017-08-04T18:41:28.157Z,23.5
2017-08-04T18:41:48.814Z,23.5
2017-08-04T18:42:09.753Z,23.5
2017-08-04T18:42:30.418Z,23.4
2017-08-04T18:42:51.187Z,23.4
2017-08-04T18:43:11.838Z,23.5
2017-08-04T18:43:32.570Z,23.4
2017-08-04T18:43:53.222Z,23.4
2017-08-04T18:44:13.869Z,23.5
2017-08-04T18:44:34.499Z,23.4
2017-08-04T18:44:55.136Z,23.5
2017-08-04T18:45:15.795Z,23.4
2017-08-04T18:45:36.447Z,23.4
2017-08-04T18:45:57.094Z,23.4
2017-08-04T18:46:17.762Z,23.4
2017-08-04T18:46:38.404Z,23.3
2017-08-04T18:46:59.058Z,23.2
2017-08-04T18:47:19.723Z,23.3
2017-08-04T18:47:40.380Z,23.3
2017-08-04T18:48:01.047Z,23.3
2017-08-04T18:48:21.694Z,23.3
2017-08-04T18:48:42.338Z,23.3
2017-08-04T18:49:02.983Z,23.3
2017-08-04T18:49:23.627Z,23.3
2017-08-04T18:49:44.322Z,23.3
2017-08-04T18:50:04.979Z,23.2
2017-08-04T18:50:25.632Z,23.2
2017-08-04T18:50:46.287Z,23.3
2017-08-04T18:51:08.020Z,23.2
2017-08-04T18:51:29.777Z,23.3
2017-08-04T18:51:52.498Z,23.2
2017-08-04T18:52:14.142Z,23.2
2017-08-04T18:52:35.401Z,23.2
2017-08-04T18:52:56.662Z,23.3
2017-08-04T18:53:17.929Z,23.2
2017-08-04T18:53:38.715Z,23.2
2017-08-04T18:54:00.279Z,23.2
2017-08-04T18:54:21.650Z,23.2
2017-08-04T18:54:42.989Z,23.2
2017-08-04T18:55:04.205Z,23.3
2017-08-04T18:55:25.859Z,23.2
2017-08-04T18:55:47.820Z,23.2
2017-08-04T18:56:09.900Z,23.2
2017-08-04T18:56:31.278Z,23.2
2017-08-04T18:56:52.468Z,23.2
2017-08-04T18:57:13.925Z,23.2
2017-08-04T18:57:35.010Z,23.2
2017-08-04T18:57:56.171Z,23.2
2017-08-04T18:58:18.209Z,23.2
2017-08-04T18:58:39.176Z,23.2
2017-08-04T18:59:01.120Z,23.2
2017-08-04T18:59:22.283Z,23.2
2017-08-04T18:59:43.595Z,23.1
2017-08-04T19:00:04.720Z,23.1
2017-08-04T19:00:25.654Z,23.2
2017-08-04T19:00:48.535Z,23.1
2017-08-04T19:01:09.849Z,23.1
2017-08-04T19:01:31.072Z,23.1
2017-08-04T19:01:51.874Z,23.2
2017-08-04T19:02:13.220Z,23.1
2017-08-04T19:02:34.537Z,23.1
2017-08-04T19:02:55.547Z,23.1
2017-08-04T19:03:18.341Z,23.1
2017-08-04T19:03:39.468Z,23.1
2017-08-04T19:04:00.613Z,23.1
2017-08-04T19:04:21.915Z,23.1
2017-08-04T19:04:43.371Z,23.1
2017-08-04T19:05:04.749Z,23
2017-08-04T19:05:26.195Z,23.1
2017-08-04T19:05:47.156Z,23.1
2017-08-04T19:06:08.427Z,23.1
2017-08-04T19:06:29.917Z,23.1
2017-08-04T19:06:52.393Z,23.2
2017-08-04T19:07:13.367Z,23.1
2017-08-04T19:07:34.687Z,23.1
2017-08-04T19:07:55.968Z,23.1
2017-08-04T19:08:17.353Z,23.2
2017-08-04T19:08:39.146Z,23.1
2017-08-04T19:09:00.390Z,23.1
2017-08-04T19:09:21.638Z,23.1
2017-08-04T19:09:42.914Z,23.1
2017-08-04T19:10:04.035Z,23.2
2017-08-04T19:10:26.980Z,23.2
2017-08-04T19:10:48.246Z,23.1
2017-08-04T19:11:09.964Z,23.1
2017-08-04T19:11:33.003Z,23.1
2017-08-04T19:11:56.750Z,23.1
2017-08-04T19:12:17.944Z,23.2
2017-08-04T19:12:42.043Z,23.2
2017-08-04T19:13:02.889Z,23.2
2017-08-04T19:13:24.636Z,23.2
2017-08-04T19:13:48.119Z,23.2
2017-08-04T19:14:09.893Z,23.2
2017-08-04T19:14:32.737Z,23.2
2017-08-04T19:14:55.210Z,23.2
2017-08-04T19:15:16.213Z,23.3
2017-08-04T19:15:41.417Z,23.1
2017-08-04T19:16:02.861Z,23.1
2017-08-04T19:16:25.153Z,23.2
2017-08-04T19:16:46.384Z,23.2
2017-08-04T19:17:09.452Z,23.2
2017-08-04T19:17:30.833Z,23.2
2017-08-04T19:17:51.637Z,23.1
2017-08-04T19:18:13.007Z,23.1
2017-08-04T19:18:34.197Z,23.1
2017-08-04T19:18:55.594Z,23.1
2017-08-04T19:19:16.794Z,23.2
2017-08-04T19:19:38.762Z,23
2017-08-04T19:19:59.716Z,23.1
2017-08-04T19:20:20.321Z,23.1
2017-08-04T19:20:41.463Z,23.1
2017-08-04T19:21:02.621Z,23.1
2017-08-04T19:21:23.874Z,23
2017-08-04T19:21:45.921Z,23.1
2017-08-04T19:22:07.201Z,23.1
2017-08-04T19:22:29.334Z,23
2017-08-04T19:22:51.340Z,23.1
2017-08-04T19:23:12.619Z,23
2017-08-04T19:23:33.765Z,23
2017-08-04T19:23:54.546Z,23.1
2017-08-04T19:24:16.071Z,23.1
2017-08-04T19:24:37.757Z,23
2017-08-04T19:24:59.979Z,23
2017-08-04T19:25:21.070Z,23
2017-08-04T19:25:42.264Z,23
2017-08-04T19:26:03.790Z,23.1
2017-08-04T19:26:25.082Z,23
2017-08-04T19:26:46.829Z,23
2017-08-04T19:27:08.047Z,23
2017-08-04T19:27:29.406Z,23
2017-08-04T19:27:50.574Z,23.1
2017-08-04T19:28:11.753Z,23
2017-08-04T19:28:32.945Z,23
2017-08-04T19:28:54.411Z,23
2017-08-04T19:29:15.540Z,23
2017-08-04T19:29:36.643Z,23
2017-08-04T19:29:58.077Z,23
2017-08-04T19:30:19.301Z,22.9
2017-08-04T19:30:40.672Z,22.9
2017-08-04T19:31:01.952Z,22.9
2017-08-04T19:31:23.379Z,22.9
2017-08-04T19:31:44.632Z,23
2017-08-04T19:32:05.709Z,22.9
2017-08-04T19:32:27.324Z,22.9
2017-08-04T19:32:48.452Z,22.9
2017-08-04T19:33:09.633Z,22.9
2017-08-04T19:33:31.572Z,22.9
2017-08-04T19:33:52.526Z,22.9
2017-08-04T19:34:13.825Z,22.9
2017-08-04T19:34:34.935Z,22.9
2017-08-04T19:34:56.506Z,22.9
2017-08-04T19:35:17.797Z,22.8
2017-08-04T19:35:38.958Z,22.9
2017-08-04T19:36:00.589Z,22.8
2017-08-04T19:36:22.542Z,22.8
2017-08-04T19:36:45.533Z,22.8
2017-08-04T19:37:07.306Z,22.8
2017-08-04T19:37:30.276Z,22.9
2017-08-04T19:37:52.299Z,22.9
2017-08-04T19:38:15.338Z,22.8
2017-08-04T19:38:36.514Z,22.8
2017-08-04T19:38:57.749Z,22.8
2017-08-04T19:39:18.893Z,22.8
2017-08-04T19:39:40.160Z,22.8
2017-08-04T19:40:03.013Z,22.8
2017-08-04T19:40:24.162Z,22.8
2017-08-04T19:40:45.990Z,22.8
2017-08-04T19:41:07.272Z,22.8
2017-08-04T19:41:28.430Z,22.8
2017-08-04T19:41:49.603Z,22.8
2017-08-04T19:42:10.903Z,22.8
2017-08-04T19:42:32.169Z,22.8
2017-08-04T19:42:53.440Z,22.8
2017-08-04T19:43:14.756Z,22.8
2017-08-04T19:43:35.933Z,22.9
2017-08-04T19:43:57.490Z,22.8
2017-08-04T19:44:19.492Z,22.8
2017-08-04T19:44:40.706Z,22.8
2017-08-04T19:45:01.361Z,22.9
2017-08-04T19:45:23.465Z,22.8
2017-08-04T19:45:44.718Z,22.8
2017-08-04T19:46:05.910Z,22.9
2017-08-04T19:46:28.681Z,22.8
2017-08-04T19:46:50.798Z,22.9
2017-08-04T19:47:12.510Z,22.9
2017-08-04T19:47:33.770Z,22.8
2017-08-04T19:47:55.023Z,22.8
2017-08-04T19:48:16.824Z,22.8
2017-08-04T19:48:39.166Z,22.8
2017-08-04T19:49:01.309Z,22.9
2017-08-04T19:49:22.592Z,22.9
2017-08-04T19:49:43.778Z,22.9
2017-08-04T19:50:05.554Z,22.8
2017-08-04T19:50:27.776Z,22.8
2017-08-04T19:50:49.562Z,22.9
2017-08-04T19:51:11.798Z,22.8
2017-08-04T19:51:33.125Z,22.8
2017-08-04T19:51:54.105Z,22.9
2017-08-04T19:52:15.458Z,22.9
2017-08-04T19:52:36.794Z,22.9
2017-08-04T19:52:57.872Z,22.8
2017-08-04T19:53:19.687Z,22.9
2017-08-04T19:53:40.714Z,22.8
2017-08-04T19:54:01.860Z,22.8
2017-08-04T19:54:23.214Z,22.8
2017-08-04T19:54:44.661Z,22.8
2017-08-04T19:55:06.775Z,22.8
2017-08-04T19:55:28.414Z,22.9
2017-08-04T19:55:49.327Z,22.9
2017-08-04T19:56:12.077Z,22.8
2017-08-04T19:56:33.326Z,22.8
2017-08-04T19:56:54.499Z,22.9
2017-08-04T19:57:15.547Z,22.8
2017-08-04T19:57:36.945Z,22.8
2017-08-04T19:57:58.273Z,22.9
2017-08-04T19:58:20.041Z,22.8
2017-08-04T19:58:41.802Z,22.9
2017-08-04T19:59:02.980Z,22.8
2017-08-04T19:59:24.564Z,22.8
2017-08-04T19:59:45.596Z,22.9
2017-08-04T20:00:07.480Z,22.9
2017-08-04T20:00:29.752Z,22.8
2017-08-04T20:00:51.244Z,22.9
2017-08-04T20:01:12.643Z,22.8
2017-08-04T20:01:33.465Z,22.8
2017-08-04T20:01:55.558Z,22.8
2017-08-04T20:02:18.256Z,22.8
2017-08-04T20:02:39.451Z,22.9
2017-08-04T20:03:00.481Z,22.8
2017-08-04T20:03:21.513Z,22.8
2017-08-04T20:03:43.410Z,22.8
2017-08-04T20:04:04.512Z,22.8
2017-08-04T20:04:25.402Z,22.8
2017-08-04T20:04:47.935Z,22.8
2017-08-04T20:05:09.090Z,22.8
2017-08-04T20:05:30.927Z,22.8
2017-08-04T20:05:52.202Z,22.8
2017-08-04T20:06:13.420Z,22.9
2017-08-04T20:06:34.808Z,22.8
2017-08-04T20:06:56.220Z,22.8
2017-08-04T20:07:17.172Z,22.8
2017-08-04T20:07:39.718Z,22.9
2017-08-04T20:08:01.429Z,22.8
2017-08-04T20:08:22.975Z,22.8
2017-08-04T20:08:44.025Z,22.8
2017-08-04T20:09:05.613Z,22.8
2017-08-04T20:09:26.762Z,22.8
2017-08-04T20:09:48.153Z,22.8
2017-08-04T20:10:09.144Z,22.8
2017-08-04T20:10:30.311Z,22.8
2017-08-04T20:10:51.577Z,22.8
2017-08-04T20:11:12.696Z,22.8
2017-08-04T20:11:34.817Z,22.8
2017-08-04T20:11:55.826Z,22.8
2017-08-04T20:12:17.012Z,22.8
2017-08-04T20:12:40.830Z,22.8
2017-08-04T20:13:01.896Z,22.8
2017-08-04T20:13:22.955Z,22.8
2017-08-04T20:13:44.205Z,22.8
2017-08-04T20:14:06.334Z,22.9
2017-08-04T20:14:27.562Z,22.8
2017-08-04T20:14:49.237Z,22.8
2017-08-04T20:15:10.355Z,22.8
2017-08-04T20:15:31.664Z,22.8
2017-08-04T20:15:53.631Z,22.8
2017-08-04T20:16:15.530Z,22.9
2017-08-04T20:16:37.519Z,22.9
2017-08-04T20:16:59.880Z,22.8
2017-08-04T20:17:21.835Z,22.8
2017-08-04T20:17:43.074Z,22.8
2017-08-04T20:18:05.011Z,22.9
2017-08-04T20:18:26.403Z,22.8
2017-08-04T20:18:47.751Z,22.8
2017-08-04T20:19:08.848Z,22.8
2017-08-04T20:19:30.014Z,22.8
2017-08-04T20:19:51.973Z,22.8
2017-08-04T20:20:13.626Z,22.9
2017-08-04T20:20:34.744Z,22.8
2017-08-04T20:20:55.861Z,22.8
2017-08-04T20:21:16.764Z,22.9
2017-08-04T20:21:38.313Z,22.7
2017-08-04T20:22:02.180Z,22.7
2017-08-04T20:22:23.497Z,22.8
2017-08-04T20:22:46.045Z,22.8
2017-08-04T20:23:07.274Z,22.8
2017-08-04T20:23:28.561Z,22.7
2017-08-04T20:23:51.091Z,22.8
2017-08-04T20:24:12.859Z,22.9
2017-08-04T20:24:34.075Z,22.8
2017-08-04T20:24:56.047Z,22.8
2017-08-04T20:25:17.237Z,22.8
2017-08-04T20:25:38.215Z,22.6
2017-08-04T20:25:59.656Z,22.7
2017-08-04T20:26:20.859Z,22.7
2017-08-04T20:26:42.151Z,22.8
2017-08-04T20:27:03.567Z,22.7
2017-08-04T20:27:24.911Z,22.7
2017-08-04T20:27:46.589Z,22.8
2017-08-04T20:28:07.909Z,22.8
2017-08-04T20:28:29.634Z,22.7
2017-08-04T20:28:51.597Z,22.7
2017-08-04T20:29:13.415Z,22.7
2017-08-04T20:29:34.924Z,22.8
2017-08-04T20:29:57.185Z,22.6
2017-08-04T20:30:18.459Z,22.7
2017-08-04T20:30:39.794Z,22.7
2017-08-04T20:31:02.078Z,22.8
2017-08-04T20:31:23.465Z,22.8
2017-08-04T20:31:44.689Z,22.7
2017-08-04T20:32:06.603Z,22.7
2017-08-04T20:32:28.591Z,22.7
2017-08-04T20:32:51.368Z,22.7
2017-08-04T20:33:12.636Z,22.7
2017-08-04T20:33:33.784Z,22.6
2017-08-04T20:33:55.039Z,22.7
2017-08-04T20:34:16.310Z,22.7
2017-08-04T20:34:37.602Z,22.7
2017-08-04T20:34:59.773Z,22.6
2017-08-04T20:35:21.101Z,22.7
2017-08-04T20:35:43.486Z,22.8
2017-08-04T20:36:05.503Z,22.6
2017-08-04T20:36:27.433Z,22.6
2017-08-04T20:36:49.343Z,22.7
2017-08-04T20:37:11.869Z,22.7
2017-08-04T20:37:32.805Z,22.7
2017-08-04T20:37:54.170Z,22.6
2017-08-04T20:38:15.256Z,22.6
2017-08-04T20:38:38.132Z,22.6
2017-08-04T20:38:59.460Z,22.7
2017-08-04T20:39:21.434Z,22.7
2017-08-04T20:39:42.457Z,22.6
2017-08-04T20:40:03.741Z,22.6
2017-08-04T20:40:25.093Z,22.7
2017-08-04T20:40:46.313Z,22.6
2017-08-04T20:41:07.687Z,22.6
2017-08-04T20:41:28.949Z,22.6
2017-08-04T20:41:50.957Z,22.6
2017-08-04T20:42:11.959Z,22.6
2017-08-04T20:42:33.116Z,22.6
2017-08-04T20:42:54.328Z,22.6
2017-08-04T20:43:15.623Z,22.6
2017-08-04T20:43:37.061Z,22.6
2017-08-04T20:43:58.293Z,22.6
2017-08-04T20:44:19.529Z,22.6
2017-08-04T20:44:40.956Z,22.6
2017-08-04T20:45:03.074Z,22.6
2017-08-04T20:45:23.886Z,22.6
2017-08-04T20:45:45.238Z,22.7
2017-08-04T20:46:07.425Z,22.6
2017-08-04T20:46:29.567Z,22.6
2017-08-04T20:46:50.563Z,22.6
2017-08-04T20:47:11.915Z,22.6
2017-08-04T20:47:33.702Z,22.6
2017-08-04T20:47:54.675Z,22.6
2017-08-04T20:48:16.858Z,22.7
2017-08-04T20:48:37.596Z,22.6
2017-08-04T20:48:59.736Z,22.6
2017-08-04T20:49:21.513Z,22.5
2017-08-04T20:49:42.549Z,22.5
2017-08-04T20:50:04.205Z,22.5
2017-08-04T20:50:25.443Z,22.5
2017-08-04T20:50:46.461Z,22.5
2017-08-04T20:51:07.454Z,22.5
2017-08-04T20:51:29.608Z,22.5
2017-08-04T20:51:50.708Z,22.5
2017-08-04T20:52:11.855Z,22.5
2017-08-04T20:52:33.978Z,22.6
2017-08-04T20:52:55.166Z,22.6
2017-08-04T20:53:16.178Z,22.5
2017-08-04T20:53:37.493Z,22.5
2017-08-04T20:53:58.769Z,22.5
2017-08-04T20:54:20.488Z,22.5
2017-08-04T20:54:41.627Z,22.5
2017-08-04T20:55:02.823Z,22.5
2017-08-04T20:55:25.208Z,22.4
2017-08-04T20:55:45.900Z,22.5
2017-08-04T20:56:07.083Z,22.5
2017-08-04T20:56:28.318Z,22.4
2017-08-04T20:56:49.615Z,22.4
2017-08-04T20:57:11.766Z,22.4
2017-08-04T20:57:33.466Z,22.5
2017-08-04T20:57:54.725Z,22.4
2017-08-04T20:58:16.529Z,22.4
2017-08-04T20:58:38.255Z,22.4
2017-08-04T20:59:00.265Z,22.4
2017-08-04T20:59:21.475Z,22.4
2017-08-04T20:59:42.492Z,22.4
2017-08-04T21:00:03.406Z,22.4
2017-08-04T21:00:24.655Z,22.3
2017-08-04T21:00:46.823Z,22.3
2017-08-04T21:01:08.309Z,22.4
2017-08-04T21:01:31.326Z,22.4
2017-08-04T21:01:53.024Z,22.4
2017-08-04T21:02:14.084Z,22.4
2017-08-04T21:02:35.901Z,22.4
2017-08-04T21:02:57.348Z,22.4
2017-08-04T21:03:18.699Z,22.4
2017-08-04T21:03:39.806Z,22.3
2017-08-04T21:04:02.023Z,22.3
2017-08-04T21:04:23.909Z,22.2
2017-08-04T21:04:45.229Z,22.2
2017-08-04T21:05:06.450Z,22.2
2017-08-04T21:05:28.140Z,22.3
2017-08-04T21:05:49.535Z,22.3
2017-08-04T21:06:11.295Z,22.3
2017-08-04T21:06:33.135Z,22.2
2017-08-04T21:06:54.325Z,22.3
2017-08-04T21:07:16.104Z,22.2
2017-08-04T21:07:37.117Z,22.2
2017-08-04T21:07:59.316Z,22.2
2017-08-04T21:08:23.125Z,22.2
2017-08-04T21:08:44.344Z,22.2
2017-08-04T21:09:06.697Z,22.2
2017-08-04T21:09:28.827Z,22.2
2017-08-04T21:09:50.236Z,22.2
2017-08-04T21:10:11.393Z,22.2
2017-08-04T21:10:33.405Z,22.2
2017-08-04T21:10:54.802Z,22.2
2017-08-04T21:11:16.727Z,22.2
2017-08-04T21:11:38.051Z,22.2
2017-08-04T21:11:59.447Z,22.2
2017-08-04T21:12:21.229Z,22.2
2017-08-04T21:12:42.385Z,22.2
2017-08-04T21:13:04.305Z,22.2
2017-08-04T21:13:25.546Z,22.2
2017-08-04T21:13:47.339Z,22.1
2017-08-04T21:14:08.696Z,22.1
2017-08-04T21:14:29.911Z,22.1
2017-08-04T21:14:52.624Z,22.1
2017-08-04T21:15:13.941Z,22.1
2017-08-04T21:15:35.725Z,22.1
2017-08-04T21:15:59.278Z,22.1
2017-08-04T21:16:21.367Z,22.1
2017-08-04T21:16:43.623Z,22.1
2017-08-04T21:17:04.774Z,22
2017-08-04T21:17:26.364Z,22.1
2017-08-04T21:17:47.438Z,22.1
2017-08-04T21:18:08.809Z,22.1
2017-08-04T21:18:30.838Z,22.1
2017-08-04T21:18:52.123Z,22.1
2017-08-04T21:19:14.413Z,22.1
2017-08-04T21:19:35.588Z,22.1
2017-08-04T21:19:56.729Z,22.1
2017-08-04T21:20:18.048Z,22
2017-08-04T21:20:39.515Z,22.1
2017-08-04T21:21:00.655Z,22.1
2017-08-04T21:21:21.825Z,22.1
2017-08-04T21:21:42.608Z,22.1
2017-08-04T21:22:03.368Z,22
2017-08-04T21:22:24.025Z,22
2017-08-04T21:22:44.662Z,22.1
2017-08-04T21:23:05.311Z,22.1
2017-08-04T21:23:25.972Z,22.1
2017-08-04T21:23:46.635Z,22.1
2017-08-04T21:24:07.281Z,22.1
2017-08-04T21:24:27.937Z,22.1
2017-08-04T21:24:48.589Z,22
2017-08-04T21:25:09.237Z,22.1
2017-08-04T21:25:29.889Z,22.1
2017-08-04T21:25:50.574Z,22.1
2017-08-04T21:26:11.218Z,22
2017-08-04T21:26:31.892Z,22.1
2017-08-04T21:26:52.533Z,22
2017-08-04T21:27:13.284Z,22
2017-08-04T21:27:34.674Z,22.1
2017-08-04T21:27:55.340Z,22.1
2017-08-04T21:28:15.984Z,22.1
2017-08-04T21:28:38.152Z,22.1
2017-08-04T21:28:59.153Z,22
2017-08-04T21:29:21.937Z,22
2017-08-04T21:29:45.292Z,22
2017-08-04T21:30:06.076Z,22.1
2017-08-04T21:30:27.855Z,22.1
2017-08-04T21:30:49.839Z,22
2017-08-04T21:31:13.142Z,22.1
2017-08-04T21:31:49.314Z,22
2017-08-04T21:32:11.616Z,22
2017-08-04T21:32:34.476Z,22
2017-08-04T21:32:56.287Z,22
2017-08-04T21:33:17.004Z,22.1
2017-08-04T21:33:38.282Z,22.1
2017-08-04T21:33:58.949Z,22
2017-08-04T21:34:19.616Z,22
2017-08-04T21:34:40.292Z,22
2017-08-04T21:35:00.930Z,22.1
2017-08-04T21:35:21.584Z,22
2017-08-04T21:35:42.228Z,22
2017-08-04T21:36:02.926Z,22
2017-08-04T21:36:23.560Z,22
2017-08-04T21:36:44.219Z,22
2017-08-04T21:37:04.877Z,21.9
2017-08-04T21:37:25.551Z,21.9
2017-08-04T21:37:46.363Z,21.9
2017-08-04T21:38:07.237Z,21.9
2017-08-04T21:38:27.916Z,21.9
2017-08-04T21:38:48.772Z,21.9
2017-08-04T21:39:09.415Z,21.9
2017-08-04T21:39:30.066Z,21.9
2017-08-04T21:39:50.977Z,21.9
2017-08-04T21:40:12.032Z,21.9
2017-08-04T21:40:32.538Z,21.9
2017-08-04T21:40:53.343Z,22
2017-08-04T21:41:14.016Z,21.9
2017-08-04T21:41:34.868Z,22
2017-08-04T21:41:55.581Z,22
2017-08-04T21:42:16.416Z,21.9
2017-08-04T21:42:37.264Z,22
2017-08-04T21:42:57.928Z,22
2017-08-04T21:43:18.592Z,21.9
2017-08-04T21:43:39.682Z,21.9
2017-08-04T21:44:02.564Z,21.9
2017-08-04T21:44:25.585Z,21.9
2017-08-04T21:44:46.543Z,21.9
2017-08-04T21:45:07.325Z,21.8
2017-08-04T21:45:28.183Z,21.9
2017-08-04T21:45:49.359Z,21.9
2017-08-04T21:46:10.081Z,21.9
2017-08-04T21:46:31.181Z,21.9
2017-08-04T21:46:51.836Z,21.9
2017-08-04T21:47:13.328Z,21.9
2017-08-04T21:47:33.973Z,22
2017-08-04T21:47:54.716Z,21.9
2017-08-04T21:48:15.810Z,21.8
2017-08-04T21:48:36.522Z,21.8
2017-08-04T21:48:57.756Z,21.8
2017-08-04T21:49:18.926Z,21.8
2017-08-04T21:49:39.701Z,21.8
2017-08-04T21:50:00.425Z,21.8
2017-08-04T21:50:21.252Z,21.8
2017-08-04T21:50:42.067Z,21.8
2017-08-04T21:51:02.741Z,21.8
2017-08-04T21:51:23.396Z,21.8
2017-08-04T21:51:44.070Z,21.9
2017-08-04T21:52:04.718Z,21.9
2017-08-04T21:52:25.416Z,21.8
2017-08-04T21:52:45.996Z,21.8
2017-08-04T21:53:06.672Z,21.9
2017-08-04T21:53:27.332Z,21.8
2017-08-04T21:53:47.981Z,21.8
2017-08-04T21:54:08.655Z,21.8
2017-08-04T21:54:29.326Z,21.8
2017-08-04T21:54:50.304Z,21.8
2017-08-04T21:55:11.248Z,21.8
2017-08-04T21:55:32.208Z,21.9
2017-08-04T21:55:53.207Z,21.8
2017-08-04T21:56:13.898Z,21.8
2017-08-04T21:56:34.707Z,21.8
2017-08-04T21:56:55.564Z,21.8
2017-08-04T21:57:16.378Z,21.8
2017-08-04T21:57:37.087Z,21.7
2017-08-04T21:57:57.838Z,21.8
2017-08-04T21:58:18.617Z,21.8
2017-08-04T21:58:39.450Z,21.8
2017-08-04T21:59:00.269Z,21.7
2017-08-04T21:59:20.930Z,21.7
2017-08-04T21:59:41.848Z,21.8
2017-08-04T22:00:02.584Z,21.8
2017-08-04T22:00:23.437Z,21.7
2017-08-04T22:00:44.268Z,21.8
2017-08-04T22:01:04.998Z,21.6
2017-08-04T22:01:25.640Z,21.7
2017-08-04T22:01:46.297Z,21.7
2017-08-04T22:02:06.932Z,21.7
2017-08-04T22:02:27.626Z,21.7
2017-08-04T22:02:48.276Z,21.7
2017-08-04T22:03:08.982Z,21.7
2017-08-04T22:03:29.636Z,21.7
2017-08-04T22:03:50.301Z,21.7
2017-08-04T22:04:11.075Z,21.7
2017-08-04T22:04:32.458Z,21.7
2017-08-04T22:04:53.431Z,21.7
2017-08-04T22:05:14.158Z,21.7
2017-08-04T22:05:35.702Z,21.7
2017-08-04T22:05:57.154Z,21.7
2017-08-04T22:06:18.114Z,21.7
2017-08-04T22:06:38.770Z,21.7
2017-08-04T22:06:59.413Z,21.7
2017-08-04T22:07:20.055Z,21.6
2017-08-04T22:07:40.687Z,21.7
2017-08-04T22:08:01.812Z,21.7
2017-08-04T22:08:23.177Z,21.7
2017-08-04T22:08:43.945Z,21.7
2017-08-04T22:09:04.654Z,21.7
2017-08-04T22:09:25.327Z,21.7
2017-08-04T22:09:46.139Z,21.7
2017-08-04T22:10:07.555Z,21.7
2017-08-04T22:10:28.846Z,21.7
2017-08-04T22:10:49.551Z,21.7
2017-08-04T22:11:10.196Z,21.7
2017-08-04T22:11:30.850Z,21.6
2017-08-04T22:11:51.504Z,21.7
2017-08-04T22:12:12.440Z,21.6
2017-08-04T22:12:33.793Z,21.7
2017-08-04T22:12:55.100Z,21.7
2017-08-04T22:13:16.487Z,21.6
2017-08-04T22:13:37.463Z,21.6
2017-08-04T22:13:58.200Z,21.7
2017-08-04T22:14:18.875Z,21.6
2017-08-04T22:14:39.510Z,21.6
2017-08-04T22:15:00.147Z,21.5
2017-08-04T22:15:20.787Z,21.6
2017-08-04T22:15:41.556Z,21.6
2017-08-04T22:16:02.207Z,21.6
2017-08-04T22:16:23.597Z,21.6
2017-08-04T22:16:44.539Z,21.5
2017-08-04T22:17:05.576Z,21.5
2017-08-04T22:17:26.880Z,21.6
2017-08-04T22:17:48.028Z,21.5
2017-08-04T22:18:08.904Z,21.5
2017-08-04T22:18:30.280Z,21.5
2017-08-04T22:18:50.926Z,21.5
2017-08-04T22:19:11.583Z,21.5
2017-08-04T22:19:32.232Z,21.5
2017-08-04T22:19:52.876Z,21.4
2017-08-04T22:20:13.529Z,21.5
2017-08-04T22:20:34.191Z,21.5
2017-08-04T22:20:54.836Z,21.4
2017-08-04T22:21:15.484Z,21.5
2017-08-04T22:21:36.123Z,21.5
2017-08-04T22:21:56.772Z,21.5
2017-08-04T22:22:17.420Z,21.5
2017-08-04T22:22:38.078Z,21.5
2017-08-04T22:22:58.715Z,21.4
2017-08-04T22:23:19.368Z,21.4
2017-08-04T22:23:40.027Z,21.4
2017-08-04T22:24:00.682Z,21.4
2017-08-04T22:24:21.323Z,21.4
2017-08-04T22:24:41.984Z,21.3
2017-08-04T22:25:02.617Z,21.4
2017-08-04T22:25:23.268Z,21.4
2017-08-04T22:25:43.916Z,21.3
2017-08-04T22:26:04.564Z,21.3
2017-08-04T22:26:25.216Z,21.3
2017-08-04T22:26:45.883Z,21.3
2017-08-04T22:27:06.552Z,21.3
2017-08-04T22:27:27.190Z,21.3
2017-08-04T22:27:47.839Z,21.3
2017-08-04T22:28:08.502Z,21.3
2017-08-04T22:28:29.152Z,21.3
2017-08-04T22:28:49.796Z,21.3
2017-08-04T22:29:10.442Z,21.2
2017-08-04T22:29:31.077Z,21.2
2017-08-04T22:29:51.726Z,21.2
2017-08-04T22:30:12.375Z,21.2
2017-08-04T22:30:33.033Z,21.1
2017-08-04T22:30:53.689Z,21.1
2017-08-04T22:31:14.327Z,21
2017-08-04T22:31:34.988Z,21.1
2017-08-04T22:31:55.628Z,21.1
2017-08-04T22:32:16.272Z,21.1
2017-08-04T22:32:36.944Z,21
2017-08-04T22:32:57.588Z,21
2017-08-04T22:33:18.229Z,21
2017-08-04T22:33:38.883Z,21
2017-08-04T22:33:59.536Z,21
2017-08-04T22:34:20.183Z,20.9
2017-08-04T22:34:40.821Z,21
2017-08-04T22:35:01.481Z,21
2017-08-04T22:35:22.135Z,21
2017-08-04T22:35:42.784Z,21
2017-08-04T22:36:03.425Z,21
2017-08-04T22:36:24.070Z,20.9
2017-08-04T22:36:44.736Z,20.9
2017-08-04T22:37:05.381Z,20.9
2017-08-04T22:37:26.019Z,21
2017-08-04T22:37:46.689Z,20.9
2017-08-04T22:38:07.329Z,21
2017-08-04T22:38:27.950Z,20.9
2017-08-04T22:38:48.590Z,20.8
2017-08-04T22:39:09.248Z,20.8
2017-08-04T22:39:29.882Z,20.9
2017-08-04T22:39:50.530Z,20.9
2017-08-04T22:40:11.166Z,20.8
2017-08-04T22:40:31.825Z,20.8
2017-08-04T22:40:52.462Z,20.9
2017-08-04T22:41:13.107Z,20.8
2017-08-04T22:41:33.747Z,20.8
2017-08-04T22:41:54.373Z,20.7
2017-08-04T22:42:15.013Z,20.8
2017-08-04T22:42:35.661Z,20.8
2017-08-04T22:42:56.321Z,20.8
2017-08-04T22:43:16.961Z,20.8
2017-08-04T22:43:37.632Z,20.8
2017-08-04T22:43:58.289Z,20.7
2017-08-04T22:44:18.927Z,20.7
2017-08-04T22:44:39.566Z,20.8
2017-08-04T22:45:00.211Z,20.7
2017-08-04T22:45:20.864Z,20.7
2017-08-04T22:45:41.501Z,20.7
2017-08-04T22:46:02.143Z,20.7
2017-08-04T22:46:22.778Z,20.8
2017-08-04T22:46:43.444Z,20.7
2017-08-04T22:47:04.082Z,20.6
2017-08-04T22:47:24.742Z,20.7
2017-08-04T22:47:45.389Z,20.6
2017-08-04T22:48:06.032Z,20.7
2017-08-04T22:48:26.676Z,20.6
2017-08-04T22:48:47.333Z,20.5
2017-08-04T22:49:07.996Z,20.5
2017-08-04T22:49:28.635Z,20.5
2017-08-04T22:49:49.291Z,20.5
2017-08-04T22:50:09.931Z,20.5
2017-08-04T22:50:30.589Z,20.4
2017-08-04T22:50:51.247Z,20.5
2017-08-04T22:51:11.884Z,20.4
2017-08-04T22:51:32.508Z,20.4
2017-08-04T22:51:53.146Z,20.4
2017-08-04T22:52:13.800Z,20.5
2017-08-04T22:52:34.455Z,20.4
2017-08-04T22:52:55.099Z,20.4
2017-08-04T22:53:15.744Z,20.4
2017-08-04T22:53:36.382Z,20.5
2017-08-04T22:53:57.028Z,20.4
2017-08-04T22:54:17.656Z,20.3
2017-08-04T22:54:38.297Z,20.4
2017-08-04T22:54:58.978Z,20.4
2017-08-04T22:55:19.624Z,20.4
2017-08-04T22:55:40.275Z,20.4
2017-08-04T22:56:00.927Z,20.4
2017-08-04T22:56:21.612Z,20.4
2017-08-04T22:56:42.255Z,20.4
2017-08-04T22:57:02.891Z,20.4
2017-08-04T22:57:23.534Z,20.4
2017-08-04T22:57:44.167Z,20.4
2017-08-04T22:58:04.814Z,20.4
2017-08-04T22:58:25.466Z,20.4
2017-08-04T22:58:46.126Z,20.4
2017-08-04T22:59:06.772Z,20.4
2017-08-04T22:59:27.423Z,20.4